»·PEaware :: INDIE33 KWVI-KSJC

INDIE33 :: KWVI-KSJC

FLIGHT INFORMATION

Flight Status: Arrived
Operator: Unknown
More flights by this operator :: More flights under this callsign
Pilot: Indie I. (23354)
Aircraft: BEECH AIRCRAFT T-6A TEXAN
(TEX2)
More flights by this aircraft type
Origin: KWVI Watsonville Mun
United States
Destination: KSJC Mineta San Jose Intl
United States
More flights between these airports :: More routes between these airports
Route: KWVI WVI4 SNS BSR BSR/141/5 BSR SNS KWVI KLIDE
File this flight plan on PilotEdge
Remarks: +CW / Delay Hunter High MOA with Indie36 (self deconflict) 0+15, Delay KWVI 0+15
Altitude:
(Current/Filed)
11,000ft
Speed:
(Current/Filed)
258kts
Departed: 15-Apr-19 06:53 AM
Arrived: 15-Apr-19 08:09 AM
Distance/Time
Traveled:
26nm/1:16
Distance/Time
To Go:
Arrived

Flight Plot

Page will automatically refresh every two minutes.

Flight plan parsing failed; only flown route is shown


Map Options




Map Legend


Flown Route
Filed Route
Departure Airport
Arrival Airport
Navaid (VOR, NDB)
Fix

Horizontal Profiles

Position Reports

Time Latitude Longitude Heading Altitude Ground
Speed
15-Apr-19 06:30 36.931256 -121.792002 213 163ft 0kts
15-Apr-19 06:31 36.931256 -121.792002 213 163ft 0kts
15-Apr-19 06:32 36.931256 -121.792002 213 163ft 0kts
15-Apr-19 06:33 36.931256 -121.792002 213 163ft 0kts
15-Apr-19 06:34 36.931256 -121.792002 213 163ft 0kts
15-Apr-19 06:35 36.931256 -121.792002 213 163ft 0kts
15-Apr-19 06:36 36.931254 -121.792004 213 163ft 0kts
15-Apr-19 06:37 36.931252 -121.792005 213 163ft 0kts
15-Apr-19 06:38 36.931250 -121.792007 213 163ft 0kts
15-Apr-19 06:39 36.931249 -121.792009 213 163ft 0kts
15-Apr-19 06:40 36.931247 -121.792010 213 163ft 0kts
15-Apr-19 06:41 36.931245 -121.792012 214 163ft 0kts
15-Apr-19 06:42 36.931243 -121.792013 214 163ft 0kts
15-Apr-19 06:44 36.931241 -121.792015 213 163ft 0kts
15-Apr-19 06:45 36.932736 -121.791360 35 163ft 13kts
15-Apr-19 06:46 36.935607 -121.789006 37 163ft 11kts
15-Apr-19 06:47 36.937758 -121.787333 32 163ft 11kts
15-Apr-19 06:48 36.938191 -121.786995 29 163ft 0kts
15-Apr-19 06:49 36.938219 -121.786976 29 163ft 0kts
15-Apr-19 06:50 36.938842 -121.787235 303 163ft 0kts
15-Apr-19 06:51 36.938847 -121.787244 303 163ft 0kts
15-Apr-19 06:52 36.938849 -121.787247 303 163ft 0kts
15-Apr-19 06:53 36.935613 -121.790645 211 164ft 89kts
15-Apr-19 06:54 36.906848 -121.819020 205 2840ft 130kts
15-Apr-19 06:55 36.866161 -121.834900 187 5326ft 178kts
15-Apr-19 06:56 36.818440 -121.827770 136 8182ft 185kts
15-Apr-19 06:57 36.781840 -121.774149 128 9989ft 232kts
15-Apr-19 06:58 36.738688 -121.712718 136 10010ft 236kts
15-Apr-19 06:59 36.697370 -121.648679 126 9993ft 236kts
15-Apr-19 07:00 36.649584 -121.594484 162 10094ft 231kts
15-Apr-19 07:01 36.587002 -121.610315 184 9995ft 236kts
15-Apr-19 07:02 36.521056 -121.613511 182 9986ft 236kts
15-Apr-19 07:03 36.455571 -121.618200 184 9984ft 236kts
15-Apr-19 07:04 36.389798 -121.624531 186 9986ft 236kts
15-Apr-19 07:04 36.335148 -121.629172 181 9972ft 236kts
15-Apr-19 07:06 36.260247 -121.639050 177 10708ft 202kts
15-Apr-19 07:06 36.213548 -121.634773 182 10979ft 225kts
15-Apr-19 07:07 36.152434 -121.623837 157 11013ft 232kts
15-Apr-19 07:09 36.092255 -121.573249 128 11613ft 223kts
15-Apr-19 07:09 36.055686 -121.520846 117 12144ft 253kts
15-Apr-19 07:10 36.031534 -121.458367 189 13118ft 249kts
15-Apr-19 07:12 36.034201 -121.476796 174 13561ft 257kts
15-Apr-19 07:12 35.983144 -121.448900 139 14209ft 267kts
15-Apr-19 07:13 36.019179 -121.449189 289 13464ft 291kts
15-Apr-19 07:14 36.021562 -121.451017 279 13570ft 271kts
15-Apr-19 07:15 36.064799 -121.503741 253 12553ft 283kts
15-Apr-19 07:16 36.004661 -121.492555 162 13014ft 188kts
15-Apr-19 07:17 35.957024 -121.473940 162 13681ft 184kts
15-Apr-19 07:18 35.913109 -121.448417 98 13309ft 181kts
15-Apr-19 07:19 35.957395 -121.444240 326 13007ft 263kts
15-Apr-19 07:20 36.015381 -121.488311 336 12901ft 221kts
15-Apr-19 07:21 36.002242 -121.532648 167 12530ft 206kts
15-Apr-19 07:22 35.990815 -121.477415 42 11917ft 215kts
15-Apr-19 07:23 36.005844 -121.515240 224 11346ft 210kts
15-Apr-19 07:24 36.038884 -121.515558 334 10923ft 207kts
15-Apr-19 07:25 36.096240 -121.536199 353 11036ft 234kts
15-Apr-19 07:26 36.162454 -121.543379 356 11011ft 238kts
15-Apr-19 07:27 36.227866 -121.547010 357 10822ft 232kts
15-Apr-19 07:28 36.292494 -121.557261 351 9505ft 231kts
15-Apr-19 07:29 36.355306 -121.566512 354 8951ft 229kts
15-Apr-19 07:30 36.417183 -121.564178 42 8895ft 221kts
15-Apr-19 07:31 36.444789 -121.496060 66 8045ft 223kts
15-Apr-19 07:32 36.489059 -121.444451 25 6982ft 235kts
15-Apr-19 07:33 36.542902 -121.412143 24 5485ft 207kts
15-Apr-19 07:34 36.595833 -121.380403 25 5012ft 210kts
15-Apr-19 07:35 36.649150 -121.351273 7 4946ft 208kts
15-Apr-19 07:36 36.658310 -121.398777 211 5003ft 207kts
15-Apr-19 07:37 36.612589 -121.442055 253 5016ft 211kts
15-Apr-19 07:38 36.619886 -121.513962 301 5043ft 213kts
15-Apr-19 07:39 36.649997 -121.577869 304 5019ft 214kts
15-Apr-19 07:40 36.684103 -121.637799 306 4717ft 202kts
15-Apr-19 07:41 36.734378 -121.658511 357 3890ft 191kts
15-Apr-19 07:42 36.776574 -121.686639 289 3838ft 171kts
15-Apr-19 07:43 36.737393 -121.714939 163 3678ft 213kts
15-Apr-19 07:44 36.680403 -121.694695 158 3684ft 210kts
15-Apr-19 07:45 36.696986 -121.647229 22 3672ft 207kts
15-Apr-19 07:46 36.749883 -121.659909 324 3749ft 207kts
15-Apr-19 07:47 36.789164 -121.692775 326 3436ft 158kts
15-Apr-19 07:48 36.822817 -121.718513 328 2401ft 131kts
15-Apr-19 07:49 36.855936 -121.740013 333 2401ft 130kts
15-Apr-19 07:50 36.886903 -121.759960 334 1811ft 120kts
15-Apr-19 07:51 36.911734 -121.785622 298 997ft 123kts
15-Apr-19 07:52 36.941239 -121.786547 17 1106ft 143kts
15-Apr-19 07:53 36.933497 -121.804970 141 3977ft 184kts
15-Apr-19 07:54 36.891753 -121.756366 110 5198ft 233kts
15-Apr-19 07:55 36.939796 -121.715170 11 5015ft 234kts
15-Apr-19 07:56 36.999894 -121.698422 13 5071ft 210kts
15-Apr-19 07:57 37.056267 -121.680430 15 5022ft 208kts
15-Apr-19 07:58 37.112187 -121.686474 343 5009ft 207kts
15-Apr-19 07:59 37.163378 -121.714387 327 4962ft 179kts
15-Apr-19 08:00 37.192225 -121.741927 318 4405ft 120kts
15-Apr-19 08:01 37.216564 -121.769726 318 3694ft 119kts
15-Apr-19 08:02 37.241559 -121.796692 319 3032ft 117kts
15-Apr-19 08:03 37.265480 -121.823095 317 2449ft 117kts
15-Apr-19 08:04 37.289640 -121.849900 319 1826ft 116kts
15-Apr-19 08:05 37.314045 -121.876153 319 1212ft 114kts
15-Apr-19 08:06 37.337919 -121.902789 319 586ft 114kts
15-Apr-19 08:07 37.360008 -121.926833 318 65ft 69kts
15-Apr-19 08:08 37.362737 -121.930960 237 65ft 0kts
15-Apr-19 08:09 37.359951 -121.931636 140 65ft 13kts

Navigation Log

Ident Type
Flight plan parsing failed, navigation log unavailable